Terminal Aerodrome Forecast
Issued by NWS

Home | Current Version | Previous Version | Text Only | Print | Product List | Glossary On
Versions: 1 2 3 4 5 6 7 8 9 10 11 12 13 14
000
FTUS43 KDMX 211727
TAFMCW
TAF
KMCW 211727Z 2118/2218 33023G32KT P6SM SCT028
     FM212100 33015G23KT P6SM SKC
     FM220000 32012KT P6SM SKC
     FM220900 27005KT P6SM SKC
     FM221600 21009KT P6SM FEW250=

USA.gov is the U.S. government's official web portal to all federal, state and local government web resources and services.